Terminal Aerodrome Forecast
Issued by NWS

Home | Current Version | Previous Version | Text Only | Print | Product List | Glossary On
Versions: 1 2 3 4 5 6 7 8 9 10 11 12 13 14
000
FTUS41 KPBZ 020520
TAFAGC
TAF
KAGC 020520Z 0206/0306 00000KT P6SM SKC
     FM020900 00000KT 5SM BR SKC
     FM021400 25005KT P6SM SCT050=

USA.gov is the U.S. government's official web portal to all federal, state and local government web resources and services.